sensor_id;sensor_type;location;lat;lon;timestamp;pressure;altitude;pressure_sealevel;temperature;humidity
3254;BME280;1639;42.804;23.342;2023-11-19T00:01:51;73975.47;;;-148.52;100.00
3254;BME280;1639;42.804;23.342;2023-11-19T00:04:16;73983.75;;;-148.52;100.00
3254;BME280;1639;42.804;23.342;2023-11-19T00:06:42;73985.81;;;-148.52;100.00
3254;BME280;1639;42.804;23.342;2023-11-19T00:09:07;73985.81;;;-148.52;100.00
3254;BME280;1639;42.804;23.342;2023-11-19T00:11:33;73998.25;;;-148.52;100.00
3254;BME280;1639;42.804;23.342;2023-11-19T00:13:58;73987.91;;;-148.52;100.00
3254;BME280;1639;42.804;23.342;2023-11-19T00:16:24;73987.91;;;-148.52;100.00
3254;BME280;1639;42.804;23.342;2023-11-19T00:18:49;73985.81;;;-148.52;100.00
3254;BME280;1639;42.804;23.342;2023-11-19T00:21:15;73996.16;;;-148.52;100.00
3254;BME280;1639;42.804;23.342;2023-11-19T00:23:40;74010.66;;;-148.52;100.00
3254;BME280;1639;42.804;23.342;2023-11-19T00:26:05;74004.44;;;-148.52;100.00
3254;BME280;1639;42.804;23.342;2023-11-19T00:28:32;74012.72;;;-148.52;100.00
3254;BME280;1639;42.804;23.342;2023-11-19T00:30:58;74010.66;;;-148.52;100.00
3254;BME280;1639;42.804;23.342;2023-11-19T00:33:24;74023.06;;;-148.52;100.00
3254;BME280;1639;42.804;23.342;2023-11-19T00:35:49;74023.06;;;-148.52;100.00
3254;BME280;1639;42.804;23.342;2023-11-19T00:38:15;74035.47;;;-148.52;100.00
3254;BME280;1639;42.804;23.342;2023-11-19T00:40:41;74035.47;;;-148.52;100.00
3254;BME280;1639;42.804;23.342;2023-11-19T00:43:06;74041.69;;;-148.52;100.00
3254;BME280;1639;42.804;23.342;2023-11-19T00:45:32;74041.69;;;-148.52;100.00
3254;BME280;1639;42.804;23.342;2023-11-19T00:47:58;74039.63;;;-148.52;100.00
3254;BME280;1639;42.804;23.342;2023-11-19T00:50:25;74041.69;;;-148.52;100.00
3254;BME280;1639;42.804;23.342;2023-11-19T00:52:50;74052.03;;;-148.52;100.00
3254;BME280;1639;42.804;23.342;2023-11-19T00:55:16;74035.47;;;-148.52;100.00
3254;BME280;1639;42.804;23.342;2023-11-19T00:57:42;74039.63;;;-148.52;100.00
3254;BME280;1639;42.804;23.342;2023-11-19T01:00:08;74037.53;;;-148.52;100.00
3254;BME280;1639;42.804;23.342;2023-11-19T01:02:43;74037.53;;;-148.52;100.00
3254;BME280;1639;42.804;23.342;2023-11-19T01:05:08;74031.34;;;-148.52;100.00
3254;BME280;1639;42.804;23.342;2023-11-19T01:07:34;74031.34;;;-148.52;100.00
3254;BME280;1639;42.804;23.342;2023-11-19T01:09:59;74039.63;;;-148.52;100.00
3254;BME280;1639;42.804;23.342;2023-11-19T01:12:25;74035.47;;;-148.52;100.00
3254;BME280;1639;42.804;23.342;2023-11-19T01:14:50;74039.63;;;-148.52;100.00
3254;BME280;1639;42.804;23.342;2023-11-19T01:17:15;74031.34;;;-148.52;100.00
3254;BME280;1639;42.804;23.342;2023-11-19T01:19:41;74035.47;;;-148.52;100.00
3254;BME280;1639;42.804;23.342;2023-11-19T01:22:06;74031.34;;;-148.52;100.00
3254;BME280;1639;42.804;23.342;2023-11-19T01:24:32;74035.47;;;-148.52;100.00
3254;BME280;1639;42.804;23.342;2023-11-19T01:26:57;74037.53;;;-148.52;100.00
3254;BME280;1639;42.804;23.342;2023-11-19T01:29:25;74039.63;;;-148.52;100.00
3254;BME280;1639;42.804;23.342;2023-11-19T01:31:50;74047.88;;;-148.52;100.00
3254;BME280;1639;42.804;23.342;2023-11-19T01:34:18;74052.03;;;-148.52;100.00
3254;BME280;1639;42.804;23.342;2023-11-19T01:36:43;74054.09;;;-148.52;100.00
3254;BME280;1639;42.804;23.342;2023-11-19T01:39:09;74043.75;;;-148.52;100.00
3254;BME280;1639;42.804;23.342;2023-11-19T01:41:35;74052.03;;;-148.52;100.00
3254;BME280;1639;42.804;23.342;2023-11-19T01:44:09;74045.81;;;-148.52;100.00
3254;BME280;1639;42.804;23.342;2023-11-19T01:46:37;74049.97;;;-148.52;100.00
3254;BME280;1639;42.804;23.342;2023-11-19T01:49:04;74047.88;;;-148.52;100.00
3254;BME280;1639;42.804;23.342;2023-11-19T01:51:30;74066.50;;;-148.52;100.00
3254;BME280;1639;42.804;23.342;2023-11-19T01:53:57;74066.50;;;-148.52;100.00
3254;BME280;1639;42.804;23.342;2023-11-19T01:56:23;74060.31;;;-148.52;100.00
3254;BME280;1639;42.804;23.342;2023-11-19T01:58:50;74068.59;;;-148.52;100.00
3254;BME280;1639;42.804;23.342;2023-11-19T02:01:15;74081.00;;;-148.52;100.00
3254;BME280;1639;42.804;23.342;2023-11-19T02:03:41;74074.78;;;-148.52;100.00
3254;BME280;1639;42.804;23.342;2023-11-19T02:06:07;74064.44;;;-148.52;100.00
3254;BME280;1639;42.804;23.342;2023-11-19T02:08:35;74060.31;;;-148.52;100.00
3254;BME280;1639;42.804;23.342;2023-11-19T02:11:00;74068.59;;;-148.52;100.00
3254;BME280;1639;42.804;23.342;2023-11-19T02:13:27;74072.72;;;-148.52;100.00
3254;BME280;1639;42.804;23.342;2023-11-19T02:15:54;74066.50;;;-148.52;100.00
3254;BME280;1639;42.804;23.342;2023-11-19T02:18:25;74074.78;;;-148.52;100.00
3254;BME280;1639;42.804;23.342;2023-11-19T02:20:59;74072.72;;;-148.52;100.00
3254;BME280;1639;42.804;23.342;2023-11-19T02:23:28;74068.59;;;-148.52;100.00
3254;BME280;1639;42.804;23.342;2023-11-19T02:28:28;74076.84;;;-148.52;100.00
3254;BME280;1639;42.804;23.342;2023-11-19T02:30:54;74070.66;;;-148.52;100.00
3254;BME280;1639;42.804;23.342;2023-11-19T02:33:19;74060.31;;;-148.52;100.00
3254;BME280;1639;42.804;23.342;2023-11-19T02:35:44;74058.22;;;-148.52;100.00
3254;BME280;1639;42.804;23.342;2023-11-19T02:38:10;74072.72;;;-148.52;100.00
3254;BME280;1639;42.804;23.342;2023-11-19T02:40:36;74078.94;;;-148.52;100.00
3254;BME280;1639;42.804;23.342;2023-11-19T02:43:01;74078.94;;;-148.52;100.00
3254;BME280;1639;42.804;23.342;2023-11-19T02:45:30;74072.72;;;-148.52;100.00
3254;BME280;1639;42.804;23.342;2023-11-19T02:47:56;74085.13;;;-148.52;100.00
3254;BME280;1639;42.804;23.342;2023-11-19T02:50:22;74097.53;;;-148.52;100.00
3254;BME280;1639;42.804;23.342;2023-11-19T02:52:51;74089.28;;;-148.52;100.00
3254;BME280;1639;42.804;23.342;2023-11-19T02:55:17;74089.28;;;-148.52;100.00
3254;BME280;1639;42.804;23.342;2023-11-19T02:57:43;74089.28;;;-148.52;100.00
3254;BME280;1639;42.804;23.342;2023-11-19T03:00:17;74097.53;;;-148.52;100.00
3254;BME280;1639;42.804;23.342;2023-11-19T03:02:44;74101.69;;;-148.52;100.00
3254;BME280;1639;42.804;23.342;2023-11-19T03:05:14;74112.03;;;-148.52;100.00
3254;BME280;1639;42.804;23.342;2023-11-19T03:07:42;74109.94;;;-148.52;100.00
3254;BME280;1639;42.804;23.342;2023-11-19T03:10:09;74109.94;;;-148.52;100.00
3254;BME280;1639;42.804;23.342;2023-11-19T03:12:37;74130.66;;;-148.52;100.00
3254;BME280;1639;42.804;23.342;2023-11-19T03:15:03;74141.00;;;-148.52;100.00
3254;BME280;1639;42.804;23.342;2023-11-19T03:17:28;74124.44;;;-148.52;100.00
3254;BME280;1639;42.804;23.342;2023-11-19T03:19:54;74143.06;;;-148.52;100.00
3254;BME280;1639;42.804;23.342;2023-11-19T03:22:19;74130.66;;;-148.52;100.00
3254;BME280;1639;42.804;23.342;2023-11-19T03:24:46;74138.91;;;-148.52;100.00
3254;BME280;1639;42.804;23.342;2023-11-19T03:27:11;74138.91;;;-148.52;100.00
3254;BME280;1639;42.804;23.342;2023-11-19T03:29:37;74134.78;;;-148.52;100.00
3254;BME280;1639;42.804;23.342;2023-11-19T03:32:04;74136.84;;;-148.52;100.00
3254;BME280;1639;42.804;23.342;2023-11-19T03:34:29;74134.78;;;-148.52;100.00
3254;BME280;1639;42.804;23.342;2023-11-19T03:36:55;74134.78;;;-148.52;100.00
3254;BME280;1639;42.804;23.342;2023-11-19T03:39:21;74141.00;;;-148.52;100.00
3254;BME280;1639;42.804;23.342;2023-11-19T03:41:50;74136.84;;;-148.52;100.00
3254;BME280;1639;42.804;23.342;2023-11-19T03:44:15;74155.47;;;-148.52;100.00
3254;BME280;1639;42.804;23.342;2023-11-19T03:46:40;74161.69;;;-148.52;100.00
3254;BME280;1639;42.804;23.342;2023-11-19T03:49:06;74167.88;;;-148.52;100.00
3254;BME280;1639;42.804;23.342;2023-11-19T03:51:32;74174.09;;;-148.52;100.00
3254;BME280;1639;42.804;23.342;2023-11-19T03:53:57;74174.09;;;-148.52;100.00
3254;BME280;1639;42.804;23.342;2023-11-19T03:56:24;74178.22;;;-148.52;100.00
3254;BME280;1639;42.804;23.342;2023-11-19T03:58:49;74178.22;;;-148.52;100.00
3254;BME280;1639;42.804;23.342;2023-11-19T04:01:15;74178.22;;;-148.52;100.00
3254;BME280;1639;42.804;23.342;2023-11-19T04:03:40;74180.28;;;-148.52;100.00
3254;BME280;1639;42.804;23.342;2023-11-19T04:06:06;74180.28;;;-148.52;100.00
3254;BME280;1639;42.804;23.342;2023-11-19T04:08:32;74176.16;;;-148.52;100.00
3254;BME280;1639;42.804;23.342;2023-11-19T04:10:57;74174.09;;;-148.52;100.00
3254;BME280;1639;42.804;23.342;2023-11-19T04:13:22;74180.28;;;-148.52;100.00
3254;BME280;1639;42.804;23.342;2023-11-19T04:15:50;74186.50;;;-148.52;100.00
3254;BME280;1639;42.804;23.342;2023-11-19T04:18:16;74188.56;;;-148.52;100.00
3254;BME280;1639;42.804;23.342;2023-11-19T04:20:41;74190.63;;;-148.52;100.00
3254;BME280;1639;42.804;23.342;2023-11-19T04:23:08;74203.06;;;-148.52;100.00
3254;BME280;1639;42.804;23.342;2023-11-19T04:25:35;74196.84;;;-148.52;100.00
3254;BME280;1639;42.804;23.342;2023-11-19T04:28:00;74192.72;;;-148.52;100.00
3254;BME280;1639;42.804;23.342;2023-11-19T04:30:25;74196.84;;;-148.52;100.00
3254;BME280;1639;42.804;23.342;2023-11-19T04:32:51;74203.06;;;-148.52;100.00
3254;BME280;1639;42.804;23.342;2023-11-19T04:35:16;74203.06;;;-148.52;100.00
3254;BME280;1639;42.804;23.342;2023-11-19T04:37:42;74198.91;;;-148.52;100.00
3254;BME280;1639;42.804;23.342;2023-11-19T04:40:07;74205.13;;;-148.52;100.00
3254;BME280;1639;42.804;23.342;2023-11-19T04:42:33;74186.50;;;-148.52;100.00
3254;BME280;1639;42.804;23.342;2023-11-19T04:44:58;74192.72;;;-148.52;100.00
3254;BME280;1639;42.804;23.342;2023-11-19T04:47:24;74194.78;;;-148.52;100.00
3254;BME280;1639;42.804;23.342;2023-11-19T04:49:49;74188.56;;;-148.52;100.00
3254;BME280;1639;42.804;23.342;2023-11-19T04:52:14;74203.06;;;-148.52;100.00
3254;BME280;1639;42.804;23.342;2023-11-19T04:54:43;74192.72;;;-148.52;100.00
3254;BME280;1639;42.804;23.342;2023-11-19T04:57:09;74194.78;;;-148.52;100.00
3254;BME280;1639;42.804;23.342;2023-11-19T04:59:38;74190.63;;;-148.52;100.00
3254;BME280;1639;42.804;23.342;2023-11-19T05:02:04;74198.91;;;-148.52;100.00
3254;BME280;1639;42.804;23.342;2023-11-19T05:04:30;74209.25;;;-148.52;100.00
3254;BME280;1639;42.804;23.342;2023-11-19T05:06:56;74213.41;;;-148.52;100.00
3254;BME280;1639;42.804;23.342;2023-11-19T05:09:21;74213.41;;;-148.52;100.00
3254;BME280;1639;42.804;23.342;2023-11-19T05:11:47;74209.25;;;-148.52;100.00
3254;BME280;1639;42.804;23.342;2023-11-19T05:14:13;74207.19;;;-148.52;100.00
3254;BME280;1639;42.804;23.342;2023-11-19T05:16:41;74203.06;;;-148.52;100.00
3254;BME280;1639;42.804;23.342;2023-11-19T05:19:08;74207.19;;;-148.52;100.00
3254;BME280;1639;42.804;23.342;2023-11-19T05:21:34;74211.31;;;-148.52;100.00
3254;BME280;1639;42.804;23.342;2023-11-19T05:23:59;74209.25;;;-148.52;100.00
3254;BME280;1639;42.804;23.342;2023-11-19T05:26:25;74213.41;;;-148.52;100.00
3254;BME280;1639;42.804;23.342;2023-11-19T05:28:50;74209.25;;;-148.52;100.00
3254;BME280;1639;42.804;23.342;2023-11-19T05:31:17;74219.59;;;-148.52;100.00
3254;BME280;1639;42.804;23.342;2023-11-19T05:33:42;74217.53;;;-148.52;100.00
3254;BME280;1639;42.804;23.342;2023-11-19T05:36:08;74215.47;;;-148.52;100.00
3254;BME280;1639;42.804;23.342;2023-11-19T05:38:35;74229.94;;;-148.52;100.00
3254;BME280;1639;42.804;23.342;2023-11-19T05:41:01;74227.88;;;-148.52;100.00
3254;BME280;1639;42.804;23.342;2023-11-19T05:43:26;74229.94;;;-148.52;100.00
3254;BME280;1639;42.804;23.342;2023-11-19T05:45:51;74244.44;;;-148.52;100.00
3254;BME280;1639;42.804;23.342;2023-11-19T05:48:17;74232.00;;;-148.52;100.00
3254;BME280;1639;42.804;23.342;2023-11-19T05:50:42;74236.16;;;-148.52;100.00
3254;BME280;1639;42.804;23.342;2023-11-19T05:53:08;74238.22;;;-148.52;100.00
3254;BME280;1639;42.804;23.342;2023-11-19T05:55:38;74246.50;;;-148.52;100.00
3254;BME280;1639;42.804;23.342;2023-11-19T05:58:11;74250.63;;;-148.52;100.00
3254;BME280;1639;42.804;23.342;2023-11-19T06:00:40;74246.50;;;-148.52;100.00
3254;BME280;1639;42.804;23.342;2023-11-19T06:03:07;74246.50;;;-148.52;100.00
3254;BME280;1639;42.804;23.342;2023-11-19T06:05:32;74263.03;;;-148.52;100.00
3254;BME280;1639;42.804;23.342;2023-11-19T06:07:58;74256.84;;;-148.52;100.00
3254;BME280;1639;42.804;23.342;2023-11-19T06:10:23;74265.13;;;-148.52;100.00
3254;BME280;1639;42.804;23.342;2023-11-19T06:12:58;74246.50;;;-148.52;100.00
3254;BME280;1639;42.804;23.342;2023-11-19T06:15:25;74244.44;;;-148.52;100.00
3254;BME280;1639;42.804;23.342;2023-11-19T06:17:51;74238.22;;;-148.52;100.00
3254;BME280;1639;42.804;23.342;2023-11-19T06:20:16;74244.44;;;-148.52;100.00
3254;BME280;1639;42.804;23.342;2023-11-19T06:22:42;74242.38;;;-148.52;100.00
3254;BME280;1639;42.804;23.342;2023-11-19T06:25:09;74263.03;;;-148.52;100.00
3254;BME280;1639;42.804;23.342;2023-11-19T06:27:34;74267.19;;;-148.52;100.00
3254;BME280;1639;42.804;23.342;2023-11-19T06:30:00;74273.41;;;-148.52;100.00
3254;BME280;1639;42.804;23.342;2023-11-19T06:32:26;74265.13;;;-148.52;100.00
3254;BME280;1639;42.804;23.342;2023-11-19T06:34:51;74267.19;;;-148.52;100.00
3254;BME280;1639;42.804;23.342;2023-11-19T06:37:17;74265.13;;;-148.52;100.00
3254;BME280;1639;42.804;23.342;2023-11-19T06:39:42;74263.03;;;-148.52;100.00
3254;BME280;1639;42.804;23.342;2023-11-19T06:42:08;74265.13;;;-148.52;100.00
3254;BME280;1639;42.804;23.342;2023-11-19T06:44:33;74271.31;;;-148.52;100.00
3254;BME280;1639;42.804;23.342;2023-11-19T06:46:59;74283.75;;;-148.52;100.00
3254;BME280;1639;42.804;23.342;2023-11-19T06:49:24;74277.53;;;-148.52;100.00
3254;BME280;1639;42.804;23.342;2023-11-19T06:51:50;74273.41;;;-148.52;100.00
3254;BME280;1639;42.804;23.342;2023-11-19T06:54:15;74267.19;;;-148.52;100.00
3254;BME280;1639;42.804;23.342;2023-11-19T06:56:41;74271.31;;;-148.52;100.00
3254;BME280;1639;42.804;23.342;2023-11-19T06:59:07;74258.91;;;-148.52;100.00
3254;BME280;1639;42.804;23.342;2023-11-19T07:01:36;74242.38;;;-148.52;100.00
3254;BME280;1639;42.804;23.342;2023-11-19T07:04:02;74229.94;;;-148.52;100.00
3254;BME280;1639;42.804;23.342;2023-11-19T07:06:33;74221.66;;;-148.52;100.00
3254;BME280;1639;42.804;23.342;2023-11-19T07:08:59;74238.22;;;-148.52;100.00
3254;BME280;1639;42.804;23.342;2023-11-19T07:11:25;74236.16;;;-148.52;100.00
3254;BME280;1639;42.804;23.342;2023-11-19T07:13:50;74236.16;;;-148.52;100.00
3254;BME280;1639;42.804;23.342;2023-11-19T07:16:15;74248.56;;;-148.52;100.00
3254;BME280;1639;42.804;23.342;2023-11-19T07:18:41;74238.22;;;-148.52;100.00
3254;BME280;1639;42.804;23.342;2023-11-19T07:21:09;74234.09;;;-148.52;100.00
3254;BME280;1639;42.804;23.342;2023-11-19T07:23:36;74209.25;;;-148.52;100.00
3254;BME280;1639;42.804;23.342;2023-11-19T07:26:04;74190.63;;;-148.52;100.00
3254;BME280;1639;42.804;23.342;2023-11-19T07:28:29;74207.19;;;-148.52;100.00
3254;BME280;1639;42.804;23.342;2023-11-19T07:30:55;74217.53;;;-148.52;100.00
3254;BME280;1639;42.804;23.342;2023-11-19T07:33:21;74209.25;;;-148.52;100.00
3254;BME280;1639;42.804;23.342;2023-11-19T07:35:46;74174.09;;;-148.52;100.00
3254;BME280;1639;42.804;23.342;2023-11-19T07:38:12;74172.03;;;-148.52;100.00
3254;BME280;1639;42.804;23.342;2023-11-19T07:40:38;74207.19;;;-148.52;100.00
3254;BME280;1639;42.804;23.342;2023-11-19T07:43:03;74205.13;;;-148.52;100.00
3254;BME280;1639;42.804;23.342;2023-11-19T07:45:28;74192.72;;;-148.52;100.00
3254;BME280;1639;42.804;23.342;2023-11-19T07:47:54;74196.84;;;-148.52;100.00
3254;BME280;1639;42.804;23.342;2023-11-19T07:50:20;74205.13;;;-148.52;100.00
3254;BME280;1639;42.804;23.342;2023-11-19T07:52:45;74188.56;;;-148.52;100.00
3254;BME280;1639;42.804;23.342;2023-11-19T07:55:11;74219.59;;;-148.52;100.00
3254;BME280;1639;42.804;23.342;2023-11-19T07:57:37;74221.66;;;-148.52;100.00
3254;BME280;1639;42.804;23.342;2023-11-19T08:00:03;74234.09;;;-148.52;100.00
3254;BME280;1639;42.804;23.342;2023-11-19T08:02:29;74215.47;;;-148.52;100.00
3254;BME280;1639;42.804;23.342;2023-11-19T08:04:54;74186.50;;;-148.52;100.00
3254;BME280;1639;42.804;23.342;2023-11-19T08:07:21;74095.47;;;-148.52;100.00
3254;BME280;1639;42.804;23.342;2023-11-19T08:09:47;74056.16;;;-148.52;100.00
3254;BME280;1639;42.804;23.342;2023-11-19T08:12:13;74037.53;;;-148.52;100.00
3254;BME280;1639;42.804;23.342;2023-11-19T08:14:41;73969.28;;;-148.52;100.00
3254;BME280;1639;42.804;23.342;2023-11-19T08:17:06;73956.88;;;-148.52;100.00
3254;BME280;1639;42.804;23.342;2023-11-19T08:19:32;73948.59;;;-148.52;100.00
3254;BME280;1639;42.804;23.342;2023-11-19T08:21:57;73961.00;;;-148.52;100.00
3254;BME280;1639;42.804;23.342;2023-11-19T08:24:23;74066.50;;;-148.52;100.00
3254;BME280;1639;42.804;23.342;2023-11-19T08:26:48;74083.06;;;-148.52;100.00
3254;BME280;1639;42.804;23.342;2023-11-19T08:29:14;74138.91;;;-148.52;100.00
3254;BME280;1639;42.804;23.342;2023-11-19T08:31:39;74165.81;;;-148.52;100.00
3254;BME280;1639;42.804;23.342;2023-11-19T08:34:05;74196.84;;;-148.52;100.00
3254;BME280;1639;42.804;23.342;2023-11-19T08:36:34;74209.25;;;-148.52;100.00
3254;BME280;1639;42.804;23.342;2023-11-19T08:38:59;74209.25;;;-148.52;100.00
3254;BME280;1639;42.804;23.342;2023-11-19T08:41:25;74229.94;;;-148.52;100.00
3254;BME280;1639;42.804;23.342;2023-11-19T08:43:50;74240.28;;;-148.52;100.00
3254;BME280;1639;42.804;23.342;2023-11-19T08:46:17;74242.38;;;-148.52;100.00
3254;BME280;1639;42.804;23.342;2023-11-19T08:48:42;74236.16;;;-148.52;100.00
3254;BME280;1639;42.804;23.342;2023-11-19T08:51:08;74225.81;;;-148.52;100.00
3254;BME280;1639;42.804;23.342;2023-11-19T08:53:33;74242.38;;;-148.52;100.00
3254;BME280;1639;42.804;23.342;2023-11-19T08:55:59;74234.09;;;-148.52;100.00
3254;BME280;1639;42.804;23.342;2023-11-19T08:58:25;74217.53;;;-148.52;100.00
3254;BME280;1639;42.804;23.342;2023-11-19T09:00:51;74221.66;;;-148.52;100.00
3254;BME280;1639;42.804;23.342;2023-11-19T09:03:16;74203.06;;;-148.52;100.00
3254;BME280;1639;42.804;23.342;2023-11-19T09:05:41;74180.28;;;-148.52;100.00
3254;BME280;1639;42.804;23.342;2023-11-19T09:08:07;74147.19;;;-148.52;100.00
3254;BME280;1639;42.804;23.342;2023-11-19T09:10:32;74145.13;;;-148.52;100.00
3254;BME280;1639;42.804;23.342;2023-11-19T09:12:58;74138.91;;;-148.52;100.00
3254;BME280;1639;42.804;23.342;2023-11-19T09:15:23;74124.44;;;-148.52;100.00
3254;BME280;1639;42.804;23.342;2023-11-19T09:17:49;74143.06;;;-148.52;100.00
3254;BME280;1639;42.804;23.342;2023-11-19T09:20:14;74161.69;;;-148.52;100.00
3254;BME280;1639;42.804;23.342;2023-11-19T09:22:41;74178.22;;;-148.52;100.00
3254;BME280;1639;42.804;23.342;2023-11-19T09:25:07;74188.56;;;-148.52;100.00
3254;BME280;1639;42.804;23.342;2023-11-19T09:27:33;74172.03;;;-148.52;100.00
3254;BME280;1639;42.804;23.342;2023-11-19T09:29:58;74143.06;;;-148.52;100.00
3254;BME280;1639;42.804;23.342;2023-11-19T09:32:24;74174.09;;;-148.52;100.00
3254;BME280;1639;42.804;23.342;2023-11-19T09:34:50;74167.88;;;-148.52;100.00
3254;BME280;1639;42.804;23.342;2023-11-19T09:37:16;74180.28;;;-148.52;100.00
3254;BME280;1639;42.804;23.342;2023-11-19T09:39:41;74176.16;;;-148.52;100.00
3254;BME280;1639;42.804;23.342;2023-11-19T09:42:12;74174.09;;;-148.52;100.00
3254;BME280;1639;42.804;23.342;2023-11-19T09:44:41;74167.88;;;-148.52;100.00
3254;BME280;1639;42.804;23.342;2023-11-19T09:47:08;74151.34;;;-148.52;100.00
3254;BME280;1639;42.804;23.342;2023-11-19T09:49:35;74151.34;;;-148.52;100.00
3254;BME280;1639;42.804;23.342;2023-11-19T09:52:01;74134.78;;;-148.52;100.00
3254;BME280;1639;42.804;23.342;2023-11-19T09:54:28;74116.16;;;-148.52;100.00
3254;BME280;1639;42.804;23.342;2023-11-19T09:56:55;74093.41;;;-148.52;100.00
3254;BME280;1639;42.804;23.342;2023-11-19T09:59:25;74081.00;;;-148.52;100.00
3254;BME280;1639;42.804;23.342;2023-11-19T10:01:51;74060.31;;;-148.52;100.00
3254;BME280;1639;42.804;23.342;2023-11-19T10:04:18;74047.88;;;-148.52;100.00
3254;BME280;1639;42.804;23.342;2023-11-19T10:06:44;74066.50;;;-148.52;100.00
3254;BME280;1639;42.804;23.342;2023-11-19T10:09:12;74101.69;;;-148.52;100.00
3254;BME280;1639;42.804;23.342;2023-11-19T10:11:37;74118.22;;;-148.52;100.00
3254;BME280;1639;42.804;23.342;2023-11-19T10:14:03;74128.56;;;-148.52;100.00
3254;BME280;1639;42.804;23.342;2023-11-19T10:16:29;74147.19;;;-148.52;100.00
3254;BME280;1639;42.804;23.342;2023-11-19T10:18:57;74157.53;;;-148.52;100.00
3254;BME280;1639;42.804;23.342;2023-11-19T10:21:23;74153.41;;;-148.52;100.00
3254;BME280;1639;42.804;23.342;2023-11-19T10:23:55;74149.25;;;-148.52;100.00
3254;BME280;1639;42.804;23.342;2023-11-19T10:26:26;74151.34;;;-148.52;100.00
3254;BME280;1639;42.804;23.342;2023-11-19T10:28:51;74134.78;;;-148.52;100.00
3254;BME280;1639;42.804;23.342;2023-11-19T10:31:18;74134.78;;;-148.52;100.00
3254;BME280;1639;42.804;23.342;2023-11-19T10:33:44;74128.56;;;-148.52;100.00
3254;BME280;1639;42.804;23.342;2023-11-19T10:36:11;74132.72;;;-148.52;100.00
3254;BME280;1639;42.804;23.342;2023-11-19T10:38:40;74126.50;;;-148.52;100.00
3254;BME280;1639;42.804;23.342;2023-11-19T10:41:06;74132.72;;;-148.52;100.00
3254;BME280;1639;42.804;23.342;2023-11-19T10:43:42;74134.78;;;-148.52;100.00
3254;BME280;1639;42.804;23.342;2023-11-19T10:46:13;74145.13;;;-148.52;100.00
3254;BME280;1639;42.804;23.342;2023-11-19T10:48:39;74126.50;;;-148.52;100.00
3254;BME280;1639;42.804;23.342;2023-11-19T10:51:06;74124.44;;;-148.52;100.00
3254;BME280;1639;42.804;23.342;2023-11-19T10:53:36;74087.19;;;-148.52;100.00
3254;BME280;1639;42.804;23.342;2023-11-19T10:56:04;74089.28;;;-148.52;100.00
3254;BME280;1639;42.804;23.342;2023-11-19T10:58:32;74105.81;;;-148.52;100.00
3254;BME280;1639;42.804;23.342;2023-11-19T11:01:02;74091.34;;;-148.52;100.00
3254;BME280;1639;42.804;23.342;2023-11-19T11:03:35;74058.22;;;-148.52;100.00
3254;BME280;1639;42.804;23.342;2023-11-19T11:06:05;74039.63;;;-148.52;100.00
3254;BME280;1639;42.804;23.342;2023-11-19T11:08:31;74012.72;;;-148.52;100.00
3254;BME280;1639;42.804;23.342;2023-11-19T11:10:56;73977.56;;;-148.52;100.00
3254;BME280;1639;42.804;23.342;2023-11-19T11:13:25;73979.63;;;-148.52;100.00
3254;BME280;1639;42.804;23.342;2023-11-19T11:15:55;73975.47;;;-148.52;100.00
3254;BME280;1639;42.804;23.342;2023-11-19T11:18:23;73952.72;;;-148.52;100.00
3254;BME280;1639;42.804;23.342;2023-11-19T11:20:52;73965.16;;;-148.52;100.00
3254;BME280;1639;42.804;23.342;2023-11-19T11:26:23;74031.34;;;-148.52;100.00
3254;BME280;1639;42.804;23.342;2023-11-19T11:29:17;74031.34;;;-148.52;100.00
3254;BME280;1639;42.804;23.342;2023-11-19T11:40:15;74074.78;;;-148.52;100.00
3254;BME280;1639;42.804;23.342;2023-11-19T11:42:41;74072.72;;;-148.52;100.00
3254;BME280;1639;42.804;23.342;2023-11-19T11:45:14;74068.59;;;-148.52;100.00
3254;BME280;1639;42.804;23.342;2023-11-19T11:50:18;74045.81;;;-148.52;100.00
3254;BME280;1639;42.804;23.342;2023-11-19T11:58:13;74056.16;;;-148.52;100.00
3254;BME280;1639;42.804;23.342;2023-11-19T12:00:40;74045.81;;;-148.52;100.00
3254;BME280;1639;42.804;23.342;2023-11-19T12:03:07;74039.63;;;-148.52;100.00
3254;BME280;1639;42.804;23.342;2023-11-19T12:05:38;74025.13;;;-148.52;100.00
3254;BME280;1639;42.804;23.342;2023-11-19T12:08:06;74006.53;;;-148.52;100.00
3254;BME280;1639;42.804;23.342;2023-11-19T12:10:37;73981.69;;;-148.52;100.00
3254;BME280;1639;42.804;23.342;2023-11-19T12:13:06;73961.00;;;-148.52;100.00
3254;BME280;1639;42.804;23.342;2023-11-19T12:15:32;73944.47;;;-148.52;100.00
3254;BME280;1639;42.804;23.342;2023-11-19T12:17:58;73934.13;;;-148.52;100.00
3254;BME280;1639;42.804;23.342;2023-11-19T12:20:26;73940.31;;;-148.52;100.00
3254;BME280;1639;42.804;23.342;2023-11-19T12:22:52;73919.63;;;-148.52;100.00
3254;BME280;1639;42.804;23.342;2023-11-19T12:25:19;73884.47;;;-148.52;100.00
3254;BME280;1639;42.804;23.342;2023-11-19T12:27:50;73869.97;;;-148.52;100.00
3254;BME280;1639;42.804;23.342;2023-11-19T12:30:22;73855.50;;;-148.52;100.00
3254;BME280;1639;42.804;23.342;2023-11-19T12:32:49;73861.72;;;-148.52;98.87
3254;BME280;1639;42.804;23.342;2023-11-19T12:35:15;73849.28;;;-148.52;73.97
3254;BME280;1639;42.804;23.342;2023-11-19T12:37:45;73843.09;;;-148.52;68.82
3254;BME280;1639;42.804;23.342;2023-11-19T12:42:37;73853.44;;;-148.52;65.18
3254;BME280;1639;42.804;23.342;2023-11-19T12:45:04;73855.50;;;-148.52;64.18
3254;BME280;1639;42.804;23.342;2023-11-19T12:47:30;73857.56;;;-148.52;63.75
3254;BME280;1639;42.804;23.342;2023-11-19T12:49:56;73851.38;;;-148.52;64.08
3254;BME280;1639;42.804;23.342;2023-11-19T12:52:22;73853.44;;;-148.52;63.22
3254;BME280;1639;42.804;23.342;2023-11-19T12:54:49;73859.63;;;-148.52;63.03
3254;BME280;1639;42.804;23.342;2023-11-19T12:57:15;73857.56;;;-148.52;63.66
3254;BME280;1639;42.804;23.342;2023-11-19T12:59:40;73847.22;;;-148.52;62.95
3254;BME280;1639;42.804;23.342;2023-11-19T13:02:06;73836.88;;;-148.52;62.42